createdAt,value
2019-03-29T01:16:16.042Z,3.60
2019-03-29T01:18:42.321Z,2.90
2019-03-29T01:21:08.504Z,3.03
2019-03-29T01:23:34.791Z,3.43
2019-03-29T01:26:16.371Z,3.07
2019-03-29T01:28:42.579Z,2.73
2019-03-29T01:31:08.846Z,3.17
2019-03-29T01:33:35.087Z,3.57
2019-03-29T01:36:02.041Z,3.40
2019-03-29T01:38:28.371Z,2.87
2019-03-29T01:40:54.735Z,2.87
2019-03-29T01:43:20.952Z,3.10
2019-03-29T01:45:47.125Z,3.03
2019-03-29T01:48:13.315Z,2.53
2019-03-29T01:50:39.530Z,2.63
2019-03-29T01:53:05.724Z,2.80
2019-03-29T01:55:31.940Z,2.93
2019-03-29T01:57:58.924Z,3.37
2019-03-29T02:00:30.280Z,2.70
2019-03-29T02:02:59.525Z,3.23
2019-03-29T02:05:25.830Z,2.10
2019-03-29T02:07:57.980Z,2.90
2019-03-29T02:10:24.162Z,2.73
2019-03-29T02:12:50.576Z,3.03
2019-03-29T02:15:16.810Z,2.60
2019-03-29T02:17:43.070Z,3.83
2019-03-29T02:20:09.469Z,2.27
2019-03-29T02:22:36.284Z,2.53
2019-03-29T02:25:05.036Z,4.03
2019-03-29T02:27:31.247Z,3.10
2019-03-29T02:29:57.423Z,3.20
2019-03-29T02:32:24.930Z,3.60
2019-03-29T02:34:53.825Z,2.43
2019-03-29T02:37:20.099Z,3.17
2019-03-29T02:39:46.290Z,2.93
2019-03-29T02:42:13.838Z,3.00
2019-03-29T02:44:40.660Z,3.33
2019-03-29T02:47:06.840Z,2.63
2019-03-29T02:49:33.057Z,2.57
2019-03-29T02:52:00.335Z,3.07
2019-03-29T02:54:26.541Z,2.13
2019-03-29T02:56:55.325Z,2.47
2019-03-29T02:59:21.531Z,2.87
2019-03-29T03:01:47.710Z,2.03
2019-03-29T03:04:13.963Z,2.97
2019-03-29T03:06:40.133Z,3.40
2019-03-29T03:09:13.677Z,2.87
2019-03-29T03:11:34.788Z,2.20
2019-03-29T03:14:01.006Z,4.07
2019-03-29T03:16:27.185Z,2.83
2019-03-29T03:18:53.464Z,3.77
2019-03-29T03:21:22.446Z,2.87
2019-03-29T03:23:48.725Z,2.87
2019-03-29T03:26:15.027Z,3.60
2019-03-29T03:28:41.274Z,3.07
2019-03-29T03:31:07.499Z,2.37
2019-03-29T03:33:33.684Z,2.40
2019-03-29T03:35:59.865Z,2.20
2019-03-29T03:38:26.037Z,3.17
2019-03-29T03:40:52.225Z,2.87
2019-03-29T03:43:18.418Z,3.30
2019-03-29T03:45:44.623Z,2.77
2019-03-29T03:48:11.101Z,2.73
2019-03-29T03:50:40.854Z,3.13
2019-03-29T03:53:08.003Z,3.07
2019-03-29T03:55:36.534Z,2.83
2019-03-29T03:58:11.955Z,2.67
2019-03-29T04:00:47.764Z,2.77
2019-03-29T04:03:14.027Z,3.33
2019-03-29T04:05:40.207Z,2.97
2019-03-29T04:08:06.391Z,2.97
2019-03-29T04:10:32.616Z,3.30
2019-03-29T04:12:58.835Z,2.43
2019-03-29T04:15:25.035Z,3.00
2019-03-29T04:17:51.216Z,3.20
2019-03-29T04:20:17.404Z,3.03
2019-03-29T04:22:43.627Z,2.17
2019-03-29T04:25:09.886Z,2.50
2019-03-29T04:27:36.108Z,3.00
2019-03-29T04:30:17.507Z,3.43
2019-03-29T04:32:46.215Z,3.53
2019-03-29T04:35:12.417Z,2.93
2019-03-29T04:37:38.587Z,2.80
2019-03-29T04:40:07.889Z,2.27
2019-03-29T04:42:51.392Z,3.97
2019-03-29T04:45:17.601Z,3.07
2019-03-29T04:47:43.755Z,2.60
2019-03-29T04:50:12.663Z,2.63
2019-03-29T04:52:38.825Z,2.50
2019-03-29T04:55:05.550Z,2.47
2019-03-29T04:57:31.740Z,2.10
2019-03-29T04:59:58.111Z,2.57
2019-03-29T05:02:24.294Z,2.33
2019-03-29T05:04:50.481Z,2.47
2019-03-29T05:07:16.702Z,2.90
2019-03-29T05:09:45.721Z,1.97
2019-03-29T05:12:11.971Z,3.20
2019-03-29T05:14:38.166Z,3.37
2019-03-29T05:17:04.367Z,2.77
2019-03-29T05:19:30.533Z,2.30
2019-03-29T05:21:59.556Z,3.70
2019-03-29T05:24:25.731Z,3.00
2019-03-29T05:26:51.910Z,2.27
2019-03-29T05:29:18.078Z,3.50
2019-03-29T05:31:44.284Z,3.20
2019-03-29T05:34:10.561Z,2.53
2019-03-29T05:36:36.794Z,2.57
2019-03-29T05:39:04.665Z,2.23
2019-03-29T05:41:49.436Z,2.97
2019-03-29T05:44:15.609Z,3.10
2019-03-29T05:46:41.801Z,2.23
2019-03-29T05:49:07.993Z,2.50
2019-03-29T05:51:34.163Z,2.73
2019-03-29T05:54:00.336Z,3.67
2019-03-29T05:56:26.554Z,3.00
2019-03-29T05:58:52.850Z,2.87
2019-03-29T06:01:31.459Z,3.00
2019-03-29T06:03:57.679Z,2.83
2019-03-29T06:06:23.915Z,2.90
2019-03-29T06:08:50.113Z,3.37
2019-03-29T06:11:16.335Z,3.17
2019-03-29T06:14:00.913Z,2.87
2019-03-29T06:16:38.274Z,3.07
2019-03-29T06:19:13.526Z,2.27
2019-03-29T06:21:39.922Z,3.07
2019-03-29T06:24:06.147Z,1.70
2019-03-29T06:26:32.359Z,3.40
2019-03-29T06:28:58.547Z,3.17
2019-03-29T06:31:24.768Z,3.07
2019-03-29T06:33:51.002Z,2.57
2019-03-29T06:36:18.726Z,2.47
2019-03-29T06:38:55.112Z,3.47
2019-03-29T06:41:21.374Z,2.37
2019-03-29T06:43:47.589Z,3.00
2019-03-29T06:46:13.772Z,3.17
2019-03-29T06:48:39.976Z,3.00
2019-03-29T06:51:06.291Z,3.27
2019-03-29T06:53:32.448Z,3.53
2019-03-29T06:55:59.452Z,4.60
2019-03-29T06:58:25.814Z,3.73
2019-03-29T07:00:51.991Z,4.50
2019-03-29T07:03:18.722Z,4.50
2019-03-29T07:05:47.496Z,3.03
2019-03-29T07:08:13.680Z,3.03
2019-03-29T07:10:39.829Z,3.40
2019-03-29T07:13:06.007Z,4.73
2019-03-29T07:15:32.281Z,4.33
2019-03-29T07:18:01.816Z,4.60
2019-03-29T07:20:27.992Z,3.60
2019-03-29T07:22:54.179Z,5.00
2019-03-29T07:25:20.375Z,4.03
2019-03-29T07:27:52.004Z,5.23
2019-03-29T07:30:15.204Z,5.50
2019-03-29T07:32:41.398Z,5.37
2019-03-29T07:35:07.802Z,5.00
2019-03-29T07:37:33.965Z,4.97
2019-03-29T07:40:00.390Z,4.93
2019-03-29T07:42:39.165Z,5.00
2019-03-29T07:45:09.892Z,5.83
2019-03-29T07:47:53.089Z,5.40
2019-03-29T07:50:19.368Z,5.20
2019-03-29T07:52:45.649Z,5.60
2019-03-29T07:55:11.870Z,6.00
2019-03-29T07:57:38.063Z,6.63
2019-03-29T08:00:05.644Z,7.03
2019-03-29T08:02:50.136Z,5.60
2019-03-29T08:05:17.877Z,6.87
2019-03-29T08:07:47.060Z,5.77
2019-03-29T08:10:24.539Z,6.00
2019-03-29T08:12:44.334Z,5.00
2019-03-29T08:15:10.837Z,6.20
2019-03-29T08:17:39.798Z,5.60
2019-03-29T08:20:37.465Z,5.70
2019-03-29T08:22:53.470Z,4.33
2019-03-29T08:25:22.748Z,5.47
2019-03-29T08:28:04.263Z,4.87
2019-03-29T08:30:30.711Z,4.67
2019-03-29T08:32:57.047Z,5.07
2019-03-29T08:35:23.343Z,5.20
2019-03-29T08:37:49.538Z,5.23
2019-03-29T08:40:15.732Z,5.53
2019-03-29T08:42:42.485Z,4.60
2019-03-29T08:45:17.937Z,4.73
2019-03-29T08:47:44.287Z,4.77
2019-03-29T08:50:10.909Z,5.87
2019-03-29T08:52:37.262Z,4.97
2019-03-29T08:55:05.014Z,4.30
2019-03-29T08:57:31.235Z,4.53
2019-03-29T08:59:57.401Z,5.37
2019-03-29T09:02:25.285Z,5.37
2019-03-29T09:04:57.749Z,5.10
2019-03-29T09:07:24.239Z,6.33
2019-03-29T09:09:50.734Z,6.37
2019-03-29T09:12:19.791Z,6.87
2019-03-29T09:14:45.982Z,8.37
2019-03-29T09:17:12.221Z,8.53
2019-03-29T09:19:57.422Z,7.70
2019-03-29T09:22:42.569Z,8.00
2019-03-29T09:25:09.026Z,9.03
2019-03-29T09:27:53.898Z,7.47
2019-03-29T09:30:20.216Z,6.37
2019-03-29T09:33:05.201Z,6.70
2019-03-29T09:35:31.364Z,7.00
2019-03-29T09:37:57.660Z,6.37
2019-03-29T09:40:42.714Z,6.53
2019-03-29T09:43:09.021Z,5.13
2019-03-29T09:45:53.728Z,7.30
2019-03-29T09:48:35.223Z,6.50
2019-03-29T09:51:01.389Z,5.10
2019-03-29T09:53:27.663Z,5.47
2019-03-29T09:55:53.855Z,5.22
2019-03-29T09:58:20.072Z,5.75
2019-03-29T10:01:04.823Z,5.40
2019-03-29T10:03:31.091Z,6.00
2019-03-29T10:05:57.330Z,5.92
2019-03-29T10:08:26.115Z,6.35
2019-03-29T10:10:52.469Z,6.83
2019-03-29T10:13:18.757Z,7.22
2019-03-29T10:15:45.057Z,8.00
2019-03-29T10:18:13.835Z,8.25
2019-03-29T10:20:58.818Z,8.93
2019-03-29T10:23:27.643Z,9.00
2019-03-29T10:25:53.812Z,7.15
2019-03-29T10:28:20.512Z,7.60
2019-03-29T10:30:49.637Z,7.22
2019-03-29T10:33:15.881Z,6.83
2019-03-29T10:36:00.719Z,6.78
2019-03-29T10:38:26.932Z,7.65
2019-03-29T10:40:53.189Z,7.85
2019-03-29T10:43:19.395Z,7.78
2019-03-29T10:45:45.673Z,6.80
2019-03-29T10:48:11.887Z,6.62
2019-03-29T10:50:38.084Z,7.37
2019-03-29T10:53:04.308Z,6.50
2019-03-29T10:55:30.501Z,6.37
2019-03-29T10:57:56.683Z,5.97
2019-03-29T11:00:34.751Z,6.47
2019-03-29T11:03:00.988Z,6.33
2019-03-29T11:05:27.144Z,7.35
2019-03-29T11:07:53.330Z,7.12
2019-03-29T11:10:31.612Z,9.30
2019-03-29T11:13:11.768Z,8.95
2019-03-29T11:15:26.567Z,8.53
2019-03-29T11:17:55.614Z,9.35
2019-03-29T11:20:21.843Z,9.00
2019-03-29T11:22:48.114Z,9.45
2019-03-29T11:25:14.351Z,10.15
2019-03-29T11:27:40.526Z,10.88
2019-03-29T11:30:07.038Z,10.38
2019-03-29T11:32:33.646Z,12.10
2019-03-29T11:35:03.814Z,12.93
2019-03-29T11:37:48.529Z,11.40
2019-03-29T11:40:14.809Z,12.30
2019-03-29T11:42:41.005Z,11.83
2019-03-29T11:45:07.496Z,13.03
2019-03-29T11:47:52.014Z,13.58
2019-03-29T11:50:18.403Z,12.65
2019-03-29T11:52:44.735Z,11.48
2019-03-29T11:55:10.966Z,12.35
2019-03-29T11:57:40.133Z,13.45
2019-03-29T12:00:09.224Z,12.73
2019-03-29T12:02:35.380Z,13.62
2019-03-29T12:05:01.791Z,15.23
2019-03-29T12:07:28.066Z,47.95
2019-03-29T12:09:54.526Z,25.43
2019-03-29T12:12:39.224Z,15.95
2019-03-29T12:15:06.992Z,12.18
2019-03-29T12:17:33.232Z,11.33
2019-03-29T12:19:59.465Z,11.78
2019-03-29T12:22:25.871Z,11.55
2019-03-29T12:25:05.855Z,10.82
2019-03-29T12:27:34.585Z,14.50
2019-03-29T12:30:00.864Z,17.57
2019-03-29T12:32:27.402Z,11.15
2019-03-29T12:34:56.661Z,11.18
2019-03-29T12:37:25.626Z,11.38
2019-03-29T12:39:51.828Z,10.70
2019-03-29T12:42:18.050Z,10.20
2019-03-29T12:44:44.301Z,15.03
2019-03-29T12:47:10.479Z,12.93
2019-03-29T12:49:36.666Z,22.52
2019-03-29T12:52:02.871Z,11.57
2019-03-29T12:54:29.083Z,14.35
2019-03-29T12:56:55.439Z,15.93
2019-03-29T12:59:21.751Z,12.23
2019-03-29T13:01:48.243Z,16.57
2019-03-29T13:04:26.623Z,11.73
2019-03-29T13:06:52.800Z,20.88
2019-03-29T13:09:19.020Z,16.48
2019-03-29T13:11:45.233Z,16.48
2019-03-29T13:14:14.135Z,20.68
2019-03-29T13:16:40.372Z,16.77
2019-03-29T13:19:06.564Z,16.85
2019-03-29T13:21:32.961Z,17.25
2019-03-29T13:23:59.137Z,17.98
2019-03-29T13:26:25.488Z,18.95
2019-03-29T13:28:51.781Z,19.70
2019-03-29T13:31:20.658Z,17.98
2019-03-29T13:33:46.953Z,15.25
2019-03-29T13:36:13.211Z,13.53
2019-03-29T13:38:42.245Z,14.25
2019-03-29T13:41:08.535Z,18.35
2019-03-29T13:43:34.732Z,12.63
2019-03-29T13:46:19.462Z,14.00
2019-03-29T13:48:45.665Z,10.18
2019-03-29T13:51:11.853Z,10.03
2019-03-29T13:53:38.045Z,10.08
2019-03-29T13:56:04.432Z,15.30
2019-03-29T13:58:48.997Z,8.73
2019-03-29T14:01:15.441Z,18.55
2019-03-29T14:03:41.636Z,10.43
2019-03-29T14:06:07.822Z,9.55
2019-03-29T14:08:34.011Z,16.10
2019-03-29T14:11:00.190Z,10.08
2019-03-29T14:13:26.368Z,8.35
2019-03-29T14:15:52.569Z,8.23
2019-03-29T14:18:18.828Z,7.97
2019-03-29T14:20:45.154Z,7.62
2019-03-29T14:23:11.455Z,9.35
2019-03-29T14:25:37.681Z,9.50
2019-03-29T14:28:16.226Z,8.55
2019-03-29T14:30:42.455Z,8.85
2019-03-29T14:33:08.685Z,8.40
2019-03-29T14:35:34.970Z,8.48
2019-03-29T14:38:01.449Z,8.13
2019-03-29T14:40:27.616Z,7.37
2019-03-29T14:42:53.786Z,7.83
2019-03-29T14:45:19.970Z,7.60
2019-03-29T14:47:46.154Z,8.20
2019-03-29T14:50:13.031Z,7.85
2019-03-29T14:52:39.282Z,7.65
2019-03-29T14:55:05.753Z,6.87
2019-03-29T14:57:31.963Z,8.23
2019-03-29T14:59:58.249Z,7.95
2019-03-29T15:02:27.317Z,8.00
2019-03-29T15:04:53.498Z,6.70
2019-03-29T15:07:19.826Z,7.92
2019-03-29T15:09:46.739Z,8.58
2019-03-29T15:12:13.108Z,7.62
2019-03-29T15:14:39.276Z,7.12
2019-03-29T15:17:05.557Z,7.22
2019-03-29T15:19:31.744Z,7.55
2019-03-29T15:21:58.042Z,7.35
2019-03-29T15:24:24.210Z,7.35
2019-03-29T15:26:50.391Z,7.22
2019-03-29T15:29:16.836Z,7.67
2019-03-29T15:31:43.188Z,6.92
2019-03-29T15:34:12.099Z,7.12
2019-03-29T15:36:38.317Z,7.35
2019-03-29T15:39:05.332Z,6.78
2019-03-29T15:41:31.516Z,7.37
2019-03-29T15:43:57.700Z,7.03
2019-03-29T15:46:43.109Z,6.72
2019-03-29T15:49:28.071Z,6.97
2019-03-29T15:51:54.271Z,6.65
2019-03-29T15:54:20.699Z,7.25
2019-03-29T15:57:02.321Z,6.92
2019-03-29T15:59:28.816Z,5.75
2019-03-29T16:01:57.974Z,5.78
2019-03-29T16:04:26.821Z,7.12
2019-03-29T16:06:53.156Z,6.17
2019-03-29T16:09:19.619Z,6.00
2019-03-29T16:11:45.821Z,6.05
2019-03-29T16:14:12.021Z,6.62
2019-03-29T16:16:41.070Z,6.42
2019-03-29T16:19:07.231Z,7.17
2019-03-29T16:21:33.444Z,6.92
2019-03-29T16:23:59.632Z,6.60
2019-03-29T16:26:25.910Z,7.75
2019-03-29T16:28:52.100Z,7.33
2019-03-29T16:31:18.395Z,7.25
2019-03-29T16:33:44.805Z,7.25
2019-03-29T16:36:11.096Z,8.20
2019-03-29T16:38:39.955Z,8.23
2019-03-29T16:41:06.112Z,7.25
2019-03-29T16:43:32.434Z,7.47
2019-03-29T16:45:58.996Z,8.58
2019-03-29T16:48:25.199Z,6.50
2019-03-29T16:50:51.357Z,6.37
2019-03-29T16:53:17.663Z,7.65
2019-03-29T16:55:43.867Z,8.35
2019-03-29T16:58:10.070Z,7.58
2019-03-29T17:00:36.557Z,7.25
2019-03-29T17:03:02.981Z,8.20
2019-03-29T17:05:29.929Z,8.03
2019-03-29T17:07:56.136Z,7.60
2019-03-29T17:10:22.440Z,8.08
2019-03-29T17:12:51.921Z,7.33
2019-03-29T17:15:19.592Z,8.13
2019-03-29T17:17:45.831Z,7.22
2019-03-29T17:20:12.259Z,7.30
2019-03-29T17:22:44.865Z,8.65
2019-03-29T17:25:11.120Z,9.05
2019-03-29T17:27:56.087Z,7.40
2019-03-29T17:30:39.021Z,7.47
2019-03-29T17:33:05.223Z,7.65
2019-03-29T17:35:31.397Z,8.73
2019-03-29T17:37:57.624Z,7.45
2019-03-29T17:40:23.842Z,8.05
2019-03-29T17:42:52.609Z,8.28
2019-03-29T17:45:18.786Z,8.83
2019-03-29T17:47:45.024Z,8.03
2019-03-29T17:50:11.305Z,7.72
2019-03-29T17:52:37.482Z,7.20
2019-03-29T17:55:04.882Z,8.10
2019-03-29T17:57:49.746Z,7.25
2019-03-29T18:00:18.259Z,7.85
2019-03-29T18:02:47.147Z,8.20
2019-03-29T18:05:13.376Z,7.15
2019-03-29T18:07:39.573Z,6.30
2019-03-29T18:10:07.454Z,6.95
2019-03-29T18:12:33.637Z,7.40
2019-03-29T18:14:59.812Z,6.45
2019-03-29T18:17:25.991Z,6.53
2019-03-29T18:19:53.328Z,6.47
2019-03-29T18:22:19.499Z,7.90
2019-03-29T18:24:45.728Z,7.35
2019-03-29T18:27:11.902Z,7.15
2019-03-29T18:29:38.092Z,6.45
2019-03-29T18:32:04.264Z,8.43
2019-03-29T18:34:30.691Z,6.13
2019-03-29T18:36:57.368Z,6.58
2019-03-29T18:39:42.442Z,7.20
2019-03-29T18:42:11.366Z,6.47
2019-03-29T18:44:37.583Z,6.87
2019-03-29T18:47:03.796Z,6.47
2019-03-29T18:49:32.520Z,7.43
2019-03-29T18:51:58.694Z,7.03
2019-03-29T18:54:24.934Z,6.07
2019-03-29T18:56:51.113Z,6.97
2019-03-29T18:59:17.340Z,6.27
2019-03-29T19:01:43.604Z,7.70
2019-03-29T19:04:09.983Z,7.60
2019-03-29T19:06:36.166Z,6.23
2019-03-29T19:09:03.957Z,7.70
2019-03-29T19:11:30.164Z,9.73
2019-03-29T19:14:14.886Z,9.33
2019-03-29T19:16:41.068Z,7.87
2019-03-29T19:19:10.164Z,9.50
2019-03-29T19:21:35.362Z,8.90
2019-03-29T19:24:01.553Z,9.23
2019-03-29T19:26:30.583Z,9.53
2019-03-29T19:28:59.450Z,9.07
2019-03-29T19:31:25.616Z,9.88
2019-03-29T19:33:51.848Z,11.00
2019-03-29T19:36:20.991Z,8.50
2019-03-29T19:38:47.226Z,9.30
2019-03-29T19:41:13.395Z,10.53
2019-03-29T19:43:39.604Z,9.17
2019-03-29T19:46:05.885Z,9.10
2019-03-29T19:48:32.071Z,9.10
2019-03-29T19:50:58.271Z,8.63
2019-03-29T19:53:27.375Z,9.37
2019-03-29T19:56:08.997Z,8.77
2019-03-29T19:58:35.257Z,9.60
2019-03-29T20:01:01.532Z,9.13
2019-03-29T20:03:27.905Z,10.70
2019-03-29T20:05:54.180Z,9.70
2019-03-29T20:08:20.460Z,10.43
2019-03-29T20:10:46.847Z,10.30
2019-03-29T20:13:13.019Z,10.60
2019-03-29T20:15:39.425Z,10.10
2019-03-29T20:18:08.307Z,10.77
2019-03-29T20:20:34.642Z,11.03
2019-03-29T20:23:19.598Z,10.27
2019-03-29T20:25:45.845Z,10.40
2019-03-29T20:28:12.089Z,9.67
2019-03-29T20:30:40.999Z,10.07
2019-03-29T20:33:11.791Z,11.03
2019-03-29T20:35:37.925Z,9.83
2019-03-29T20:38:04.114Z,10.50
2019-03-29T20:40:32.065Z,10.13
2019-03-29T20:42:58.358Z,11.00
2019-03-29T20:45:24.573Z,10.10
2019-03-29T20:47:52.017Z,10.57
2019-03-29T20:50:21.015Z,11.20
2019-03-29T20:52:47.405Z,10.77
2019-03-29T20:55:16.219Z,12.17
2019-03-29T20:57:42.552Z,10.30
2019-03-29T21:00:10.436Z,9.20
2019-03-29T21:02:39.529Z,10.50
2019-03-29T21:05:09.072Z,11.27
2019-03-29T21:07:35.332Z,10.27
2019-03-29T21:10:03.261Z,12.10
2019-03-29T21:12:29.511Z,10.03
2019-03-29T21:14:55.791Z,10.07
2019-03-29T21:17:22.006Z,9.97
2019-03-29T21:19:51.128Z,11.10
2019-03-29T21:22:17.351Z,11.37
2019-03-29T21:24:46.237Z,11.20
2019-03-29T21:27:12.446Z,10.33
2019-03-29T21:29:38.680Z,9.73
2019-03-29T21:32:04.871Z,10.30
2019-03-29T21:34:31.077Z,11.10
2019-03-29T21:36:57.350Z,10.43
2019-03-29T21:39:26.320Z,10.63
2019-03-29T21:41:52.553Z,10.93
2019-03-29T21:44:18.803Z,9.67
2019-03-29T21:46:44.992Z,12.50
2019-03-29T21:49:11.316Z,9.97
2019-03-29T21:51:37.601Z,11.23
2019-03-29T21:54:03.751Z,10.23
2019-03-29T21:56:29.922Z,10.47
2019-03-29T21:58:56.096Z,10.80
2019-03-29T22:01:22.328Z,9.33
2019-03-29T22:03:51.080Z,11.50
2019-03-29T22:06:17.266Z,11.10
2019-03-29T22:08:43.652Z,10.30
2019-03-29T22:11:09.818Z,11.33
2019-03-29T22:13:36.032Z,11.80
2019-03-29T22:16:02.225Z,11.07
2019-03-29T22:18:37.860Z,10.77
2019-03-29T22:20:56.501Z,11.37
2019-03-29T22:23:23.104Z,10.53
2019-03-29T22:25:49.804Z,12.13
2019-03-29T22:28:34.424Z,11.30
2019-03-29T22:31:03.208Z,10.90
2019-03-29T22:33:29.343Z,10.57
2019-03-29T22:35:55.549Z,11.50
2019-03-29T22:38:21.736Z,12.83
2019-03-29T22:40:47.972Z,12.23
2019-03-29T22:43:14.175Z,11.03
2019-03-29T22:45:40.389Z,10.50
2019-03-29T22:48:06.766Z,12.40
2019-03-29T22:50:32.931Z,10.57
2019-03-29T22:52:59.099Z,11.13
2019-03-29T22:55:25.356Z,10.60
2019-03-29T22:57:51.535Z,10.17
2019-03-29T23:00:21.529Z,12.20
2019-03-29T23:03:03.638Z,12.27
2019-03-29T23:05:32.681Z,10.90
2019-03-29T23:07:58.859Z,11.40
2019-03-29T23:10:27.594Z,10.83
2019-03-29T23:12:53.760Z,10.63
2019-03-29T23:15:19.947Z,9.90
2019-03-29T23:17:46.100Z,10.30
2019-03-29T23:20:12.397Z,10.97
2019-03-29T23:22:38.620Z,11.43
2019-03-29T23:25:05.072Z,12.13
2019-03-29T23:27:31.286Z,12.70
2019-03-29T23:29:57.486Z,9.70
2019-03-29T23:32:26.300Z,10.37
2019-03-29T23:34:52.574Z,10.67
2019-03-29T23:37:21.735Z,11.67
2019-03-29T23:39:47.917Z,11.20
2019-03-29T23:42:16.865Z,12.33
2019-03-29T23:44:43.023Z,11.80
2019-03-29T23:47:09.213Z,10.70
2019-03-29T23:49:37.991Z,10.37
2019-03-29T23:52:04.152Z,11.40
2019-03-29T23:54:30.314Z,9.80
2019-03-29T23:56:56.613Z,9.83
2019-03-29T23:59:22.749Z,10.80
